sensor_id;sensor_type;location;lat;lon;timestamp;temperature;humidity
51853;DHT22;37894;53.172;6.598;2023-03-12T00:09:36;0.10;99.90
51853;DHT22;37894;53.172;6.598;2023-03-12T00:12:02;-0.70;99.90
51853;DHT22;37894;53.172;6.598;2023-03-12T00:14:28;-0.60;99.90
51853;DHT22;37894;53.172;6.598;2023-03-12T00:16:54;-0.80;99.90
51853;DHT22;37894;53.172;6.598;2023-03-12T00:19:21;-1.10;99.90
51853;DHT22;37894;53.172;6.598;2023-03-12T00:21:47;-0.60;99.90
51853;DHT22;37894;53.172;6.598;2023-03-12T00:24:12;-1.10;99.90
51853;DHT22;37894;53.172;6.598;2023-03-12T00:29:04;-0.40;99.90
51853;DHT22;37894;53.172;6.598;2023-03-12T00:31:31;-1.30;99.90
51853;DHT22;37894;53.172;6.598;2023-03-12T00:33:58;-0.70;99.90
51853;DHT22;37894;53.172;6.598;2023-03-12T00:36:26;-0.60;99.90
51853;DHT22;37894;53.172;6.598;2023-03-12T00:38:53;0.00;99.90
51853;DHT22;37894;53.172;6.598;2023-03-12T00:41:20;-0.60;99.90
51853;DHT22;37894;53.172;6.598;2023-03-12T00:43:46;-0.60;99.90
51853;DHT22;37894;53.172;6.598;2023-03-12T00:46:12;-1.10;99.90
51853;DHT22;37894;53.172;6.598;2023-03-12T00:48:39;-0.60;99.90
51853;DHT22;37894;53.172;6.598;2023-03-12T00:51:05;-0.90;99.90
51853;DHT22;37894;53.172;6.598;2023-03-12T00:53:30;-0.50;99.90
51853;DHT22;37894;53.172;6.598;2023-03-12T00:55:56;-0.40;99.90
51853;DHT22;37894;53.172;6.598;2023-03-12T00:58:22;-0.60;99.90
51853;DHT22;37894;53.172;6.598;2023-03-12T01:03:15;-0.50;99.90
51853;DHT22;37894;53.172;6.598;2023-03-12T01:05:40;-0.50;99.90
51853;DHT22;37894;53.172;6.598;2023-03-12T01:08:07;-0.90;99.90
51853;DHT22;37894;53.172;6.598;2023-03-12T01:10:34;-0.40;99.90
51853;DHT22;37894;53.172;6.598;2023-03-12T01:12:59;-0.60;99.90
51853;DHT22;37894;53.172;6.598;2023-03-12T01:15:26;-0.70;99.90
51853;DHT22;37894;53.172;6.598;2023-03-12T01:17:51;-0.20;99.90
51853;DHT22;37894;53.172;6.598;2023-03-12T01:20:18;-0.90;99.90
51853;DHT22;37894;53.172;6.598;2023-03-12T01:25:10;-1.40;99.90
51853;DHT22;37894;53.172;6.598;2023-03-12T01:27:36;-0.70;99.90
51853;DHT22;37894;53.172;6.598;2023-03-12T01:30:03;-0.70;99.90
51853;DHT22;37894;53.172;6.598;2023-03-12T01:34:57;-0.60;99.90
51853;DHT22;37894;53.172;6.598;2023-03-12T01:37:23;-0.50;99.90
51853;DHT22;37894;53.172;6.598;2023-03-12T01:39:48;-0.60;99.90
51853;DHT22;37894;53.172;6.598;2023-03-12T01:45:00;-0.80;99.90
51853;DHT22;37894;53.172;6.598;2023-03-12T01:47:27;-0.60;99.90
51853;DHT22;37894;53.172;6.598;2023-03-12T01:49:56;-0.60;99.90
51853;DHT22;37894;53.172;6.598;2023-03-12T01:52:34;-0.50;99.90
51853;DHT22;37894;53.172;6.598;2023-03-12T01:55:06;-0.30;99.90
51853;DHT22;37894;53.172;6.598;2023-03-12T01:57:41;-0.70;99.90
51853;DHT22;37894;53.172;6.598;2023-03-12T02:00:17;-0.60;99.90
51853;DHT22;37894;53.172;6.598;2023-03-12T02:02:45;-0.80;99.90
51853;DHT22;37894;53.172;6.598;2023-03-12T02:07:45;-0.50;99.90
51853;DHT22;37894;53.172;6.598;2023-03-12T02:12:37;-0.70;99.90
51853;DHT22;37894;53.172;6.598;2023-03-12T02:15:03;-1.20;99.90
51853;DHT22;37894;53.172;6.598;2023-03-12T02:17:30;-0.90;99.90
51853;DHT22;37894;53.172;6.598;2023-03-12T02:22:26;-0.60;99.90
51853;DHT22;37894;53.172;6.598;2023-03-12T02:27:36;-0.30;99.90
51853;DHT22;37894;53.172;6.598;2023-03-12T02:30:04;-0.10;99.90
51853;DHT22;37894;53.172;6.598;2023-03-12T02:32:34;-0.20;99.90
51853;DHT22;37894;53.172;6.598;2023-03-12T02:35:01;-0.20;99.90
51853;DHT22;37894;53.172;6.598;2023-03-12T02:37:27;-0.20;99.90
51853;DHT22;37894;53.172;6.598;2023-03-12T02:40:04;-0.20;99.90
51853;DHT22;37894;53.172;6.598;2023-03-12T02:42:32;-0.10;99.90
51853;DHT22;37894;53.172;6.598;2023-03-12T02:44:59;-0.30;99.90
51853;DHT22;37894;53.172;6.598;2023-03-12T02:47:24;-0.20;99.90
51853;DHT22;37894;53.172;6.598;2023-03-12T02:49:51;-1.20;99.90
51853;DHT22;37894;53.172;6.598;2023-03-12T02:52:17;-0.10;99.90
51853;DHT22;37894;53.172;6.598;2023-03-12T02:59:34;0.00;99.90
51853;DHT22;37894;53.172;6.598;2023-03-12T03:02:00;0.00;99.90
51853;DHT22;37894;53.172;6.598;2023-03-12T03:04:28;0.10;99.90
51853;DHT22;37894;53.172;6.598;2023-03-12T03:09:20;0.20;99.90
51853;DHT22;37894;53.172;6.598;2023-03-12T03:11:48;0.10;99.90
51853;DHT22;37894;53.172;6.598;2023-03-12T03:14:14;0.10;99.90
51853;DHT22;37894;53.172;6.598;2023-03-12T03:16:39;0.20;99.90
51853;DHT22;37894;53.172;6.598;2023-03-12T03:19:06;0.40;99.90
51853;DHT22;37894;53.172;6.598;2023-03-12T03:21:32;0.40;99.90
51853;DHT22;37894;53.172;6.598;2023-03-12T03:26:24;-0.30;99.90
51853;DHT22;37894;53.172;6.598;2023-03-12T03:28:50;0.20;99.90
51853;DHT22;37894;53.172;6.598;2023-03-12T03:33:42;0.30;99.90
51853;DHT22;37894;53.172;6.598;2023-03-12T03:36:09;-0.40;99.90
51853;DHT22;37894;53.172;6.598;2023-03-12T03:38:35;0.70;99.90
51853;DHT22;37894;53.172;6.598;2023-03-12T03:46:02;0.50;99.90
51853;DHT22;37894;53.172;6.598;2023-03-12T03:48:28;0.30;99.90
51853;DHT22;37894;53.172;6.598;2023-03-12T03:51:02;0.30;99.90
51853;DHT22;37894;53.172;6.598;2023-03-12T03:55:54;0.10;99.90
51853;DHT22;37894;53.172;6.598;2023-03-12T04:00:46;0.10;99.90
51853;DHT22;37894;53.172;6.598;2023-03-12T04:05:39;0.60;99.90
51853;DHT22;37894;53.172;6.598;2023-03-12T04:08:05;0.30;99.90
51853;DHT22;37894;53.172;6.598;2023-03-12T04:15:23;0.60;99.90
51853;DHT22;37894;53.172;6.598;2023-03-12T04:17:48;0.70;99.90
51853;DHT22;37894;53.172;6.598;2023-03-12T04:25:07;0.60;99.90
51853;DHT22;37894;53.172;6.598;2023-03-12T04:27:33;0.60;99.90
51853;DHT22;37894;53.172;6.598;2023-03-12T04:29:59;0.30;99.90
51853;DHT22;37894;53.172;6.598;2023-03-12T04:42:09;-0.20;99.90
51853;DHT22;37894;53.172;6.598;2023-03-12T04:44:35;0.80;99.90
51853;DHT22;37894;53.172;6.598;2023-03-12T04:47:02;-0.20;99.90
51853;DHT22;37894;53.172;6.598;2023-03-12T04:51:54;1.30;99.90
51853;DHT22;37894;53.172;6.598;2023-03-12T04:54:20;0.60;99.90
51853;DHT22;37894;53.172;6.598;2023-03-12T04:56:48;0.60;99.90
51853;DHT22;37894;53.172;6.598;2023-03-12T04:59:13;0.70;99.90
51853;DHT22;37894;53.172;6.598;2023-03-12T05:01:39;0.70;99.90
51853;DHT22;37894;53.172;6.598;2023-03-12T05:06:31;0.40;99.90
51853;DHT22;37894;53.172;6.598;2023-03-12T05:13:50;1.00;99.90
51853;DHT22;37894;53.172;6.598;2023-03-12T05:16:16;0.80;99.90
51853;DHT22;37894;53.172;6.598;2023-03-12T05:18:43;0.40;99.90
51853;DHT22;37894;53.172;6.598;2023-03-12T05:21:19;1.50;99.90
51853;DHT22;37894;53.172;6.598;2023-03-12T05:23:45;0.40;99.90
51853;DHT22;37894;53.172;6.598;2023-03-12T05:26:29;0.90;99.90
51853;DHT22;37894;53.172;6.598;2023-03-12T05:28:57;0.40;99.90
51853;DHT22;37894;53.172;6.598;2023-03-12T05:31:23;0.90;99.90
51853;DHT22;37894;53.172;6.598;2023-03-12T05:33:49;0.70;99.90
51853;DHT22;37894;53.172;6.598;2023-03-12T05:36:15;0.90;99.90
51853;DHT22;37894;53.172;6.598;2023-03-12T05:38:41;0.90;99.90
51853;DHT22;37894;53.172;6.598;2023-03-12T05:41:09;0.30;99.90
51853;DHT22;37894;53.172;6.598;2023-03-12T05:43:39;0.90;99.90
51853;DHT22;37894;53.172;6.598;2023-03-12T05:46:04;0.60;99.90
51853;DHT22;37894;53.172;6.598;2023-03-12T05:50:57;0.10;99.90
51853;DHT22;37894;53.172;6.598;2023-03-12T05:53:23;0.80;99.90
51853;DHT22;37894;53.172;6.598;2023-03-12T05:55:48;0.60;99.90
51853;DHT22;37894;53.172;6.598;2023-03-12T06:00:41;0.90;99.90
51853;DHT22;37894;53.172;6.598;2023-03-12T06:03:09;-0.30;99.90
51853;DHT22;37894;53.172;6.598;2023-03-12T06:05:36;2.00;99.90
51853;DHT22;37894;53.172;6.598;2023-03-12T06:08:03;1.00;99.90
51853;DHT22;37894;53.172;6.598;2023-03-12T06:15:21;1.20;99.90
51853;DHT22;37894;53.172;6.598;2023-03-12T06:17:46;1.90;99.90
51853;DHT22;37894;53.172;6.598;2023-03-12T06:20:12;2.10;99.90
51853;DHT22;37894;53.172;6.598;2023-03-12T06:22:38;1.20;99.90
51853;DHT22;37894;53.172;6.598;2023-03-12T06:25:04;2.30;99.90
51853;DHT22;37894;53.172;6.598;2023-03-12T06:27:30;0.40;99.90
51853;DHT22;37894;53.172;6.598;2023-03-12T06:29:56;0.50;99.90
51853;DHT22;37894;53.172;6.598;2023-03-12T06:32:22;1.30;99.90
51853;DHT22;37894;53.172;6.598;2023-03-12T06:34:48;1.10;99.90
51853;DHT22;37894;53.172;6.598;2023-03-12T06:37:14;1.20;99.90
51853;DHT22;37894;53.172;6.598;2023-03-12T06:39:39;1.20;99.90
51853;DHT22;37894;53.172;6.598;2023-03-12T06:44:31;1.80;99.90
51853;DHT22;37894;53.172;6.598;2023-03-12T06:49:23;0.80;99.90
51853;DHT22;37894;53.172;6.598;2023-03-12T06:51:49;0.50;99.90
51853;DHT22;37894;53.172;6.598;2023-03-12T06:54:15;1.50;99.90
51853;DHT22;37894;53.172;6.598;2023-03-12T06:56:41;1.40;99.90
51853;DHT22;37894;53.172;6.598;2023-03-12T07:01:33;1.70;99.90
51853;DHT22;37894;53.172;6.598;2023-03-12T07:03:58;1.20;99.90
51853;DHT22;37894;53.172;6.598;2023-03-12T07:06:24;1.50;99.90
51853;DHT22;37894;53.172;6.598;2023-03-12T07:08:51;1.80;99.90
51853;DHT22;37894;53.172;6.598;2023-03-12T07:11:16;1.40;99.90
51853;DHT22;37894;53.172;6.598;2023-03-12T07:16:09;2.10;99.90
51853;DHT22;37894;53.172;6.598;2023-03-12T07:21:00;1.60;99.90
51853;DHT22;37894;53.172;6.598;2023-03-12T07:23:26;1.50;99.90
51853;DHT22;37894;53.172;6.598;2023-03-12T07:25:53;1.50;99.90
51853;DHT22;37894;53.172;6.598;2023-03-12T07:28:19;1.60;99.90
51853;DHT22;37894;53.172;6.598;2023-03-12T07:30:45;1.70;99.90
51853;DHT22;37894;53.172;6.598;2023-03-12T07:33:19;1.40;99.90
51853;DHT22;37894;53.172;6.598;2023-03-12T07:35:46;1.50;99.90
51853;DHT22;37894;53.172;6.598;2023-03-12T07:38:12;1.30;99.90
51853;DHT22;37894;53.172;6.598;2023-03-12T07:40:38;1.20;99.90
51853;DHT22;37894;53.172;6.598;2023-03-12T07:43:04;1.10;99.90
51853;DHT22;37894;53.172;6.598;2023-03-12T07:45:36;1.10;99.90
51853;DHT22;37894;53.172;6.598;2023-03-12T07:48:02;0.90;99.90
51853;DHT22;37894;53.172;6.598;2023-03-12T07:52:54;1.10;99.90
51853;DHT22;37894;53.172;6.598;2023-03-12T07:55:20;0.90;99.90
51853;DHT22;37894;53.172;6.598;2023-03-12T07:57:46;1.90;99.90
51853;DHT22;37894;53.172;6.598;2023-03-12T08:00:12;1.40;99.90
51853;DHT22;37894;53.172;6.598;2023-03-12T08:02:38;1.30;99.90
51853;DHT22;37894;53.172;6.598;2023-03-12T08:05:04;0.70;99.90
51853;DHT22;37894;53.172;6.598;2023-03-12T08:07:30;0.90;99.90
51853;DHT22;37894;53.172;6.598;2023-03-12T08:10:01;-0.20;99.90
51853;DHT22;37894;53.172;6.598;2023-03-12T08:12:27;0.50;99.90
51853;DHT22;37894;53.172;6.598;2023-03-12T08:14:53;0.50;99.90
51853;DHT22;37894;53.172;6.598;2023-03-12T08:17:19;0.60;99.90
51853;DHT22;37894;53.172;6.598;2023-03-12T08:19:45;0.80;99.90
51853;DHT22;37894;53.172;6.598;2023-03-12T08:27:02;0.80;99.90
51853;DHT22;37894;53.172;6.598;2023-03-12T08:29:28;-0.10;99.90
51853;DHT22;37894;53.172;6.598;2023-03-12T08:31:54;0.70;99.90
51853;DHT22;37894;53.172;6.598;2023-03-12T08:36:46;0.70;99.90
51853;DHT22;37894;53.172;6.598;2023-03-12T08:39:12;-0.40;99.90
51853;DHT22;37894;53.172;6.598;2023-03-12T08:41:37;0.80;99.90
51853;DHT22;37894;53.172;6.598;2023-03-12T08:44:03;1.60;99.90
51853;DHT22;37894;53.172;6.598;2023-03-12T08:46:29;1.00;99.90
51853;DHT22;37894;53.172;6.598;2023-03-12T08:48:54;0.90;99.90
51853;DHT22;37894;53.172;6.598;2023-03-12T08:51:20;-0.10;99.90
51853;DHT22;37894;53.172;6.598;2023-03-12T08:53:46;0.90;99.90
51853;DHT22;37894;53.172;6.598;2023-03-12T08:56:12;1.40;99.90
51853;DHT22;37894;53.172;6.598;2023-03-12T08:58:38;1.10;99.90
51853;DHT22;37894;53.172;6.598;2023-03-12T09:01:08;0.80;99.90
51853;DHT22;37894;53.172;6.598;2023-03-12T09:03:34;0.20;99.90
51853;DHT22;37894;53.172;6.598;2023-03-12T09:06:11;0.70;99.90
51853;DHT22;37894;53.172;6.598;2023-03-12T09:08:38;1.20;99.90
51853;DHT22;37894;53.172;6.598;2023-03-12T09:11:04;1.30;99.90
51853;DHT22;37894;53.172;6.598;2023-03-12T09:16:03;0.30;99.90
51853;DHT22;37894;53.172;6.598;2023-03-12T09:18:30;1.20;99.90
51853;DHT22;37894;53.172;6.598;2023-03-12T09:20:56;1.30;99.90
51853;DHT22;37894;53.172;6.598;2023-03-12T09:23:23;1.30;99.90
51853;DHT22;37894;53.172;6.598;2023-03-12T09:25:48;1.90;99.90
51853;DHT22;37894;53.172;6.598;2023-03-12T09:33:06;1.60;99.90
51853;DHT22;37894;53.172;6.598;2023-03-12T09:35:32;1.30;99.90
51853;DHT22;37894;53.172;6.598;2023-03-12T09:37:59;1.20;99.90
51853;DHT22;37894;53.172;6.598;2023-03-12T09:40:29;2.00;99.90
51853;DHT22;37894;53.172;6.598;2023-03-12T09:43:05;1.20;99.90
51853;DHT22;37894;53.172;6.598;2023-03-12T09:45:38;2.00;99.90
51853;DHT22;37894;53.172;6.598;2023-03-12T09:48:33;1.20;99.90
51853;DHT22;37894;53.172;6.598;2023-03-12T09:51:15;1.40;99.90
51853;DHT22;37894;53.172;6.598;2023-03-12T09:53:46;2.30;99.90
51853;DHT22;37894;53.172;6.598;2023-03-12T09:56:18;0.60;99.90
51853;DHT22;37894;53.172;6.598;2023-03-12T09:58:45;1.30;99.90
51853;DHT22;37894;53.172;6.598;2023-03-12T10:04:32;1.00;99.90
51853;DHT22;37894;53.172;6.598;2023-03-12T10:10:10;1.10;99.90
51853;DHT22;37894;53.172;6.598;2023-03-12T10:13:07;1.40;99.90
51853;DHT22;37894;53.172;6.598;2023-03-12T10:18:55;1.40;99.90
51853;DHT22;37894;53.172;6.598;2023-03-12T10:21:44;1.60;99.90
51853;DHT22;37894;53.172;6.598;2023-03-12T10:26:58;1.80;99.90
51853;DHT22;37894;53.172;6.598;2023-03-12T10:29:32;1.70;99.90
51853;DHT22;37894;53.172;6.598;2023-03-12T10:32:21;1.40;99.90
51853;DHT22;37894;53.172;6.598;2023-03-12T10:34:54;1.60;99.90
51853;DHT22;37894;53.172;6.598;2023-03-12T10:37:41;1.50;99.90
51853;DHT22;37894;53.172;6.598;2023-03-12T10:40:19;1.60;99.90
51853;DHT22;37894;53.172;6.598;2023-03-12T10:42:45;1.00;99.90
51853;DHT22;37894;53.172;6.598;2023-03-12T10:47:38;1.70;99.90
51853;DHT22;37894;53.172;6.598;2023-03-12T10:55:30;1.00;99.90
51853;DHT22;37894;53.172;6.598;2023-03-12T10:57:55;1.80;99.90
51853;DHT22;37894;53.172;6.598;2023-03-12T11:00:27;1.90;99.90
51853;DHT22;37894;53.172;6.598;2023-03-12T11:03:18;1.80;99.90
51853;DHT22;37894;53.172;6.598;2023-03-12T11:05:47;1.30;99.90
51853;DHT22;37894;53.172;6.598;2023-03-12T11:08:34;3.10;99.90
51853;DHT22;37894;53.172;6.598;2023-03-12T11:11:02;2.50;99.90
51853;DHT22;37894;53.172;6.598;2023-03-12T11:15:55;1.90;99.90
51853;DHT22;37894;53.172;6.598;2023-03-12T11:18:24;1.90;99.90
51853;DHT22;37894;53.172;6.598;2023-03-12T11:20:56;2.10;99.90
51853;DHT22;37894;53.172;6.598;2023-03-12T11:23:29;3.10;99.90
51853;DHT22;37894;53.172;6.598;2023-03-12T11:26:01;2.10;99.90
51853;DHT22;37894;53.172;6.598;2023-03-12T11:28:42;2.20;99.90
51853;DHT22;37894;53.172;6.598;2023-03-12T11:31:32;2.10;99.90
51853;DHT22;37894;53.172;6.598;2023-03-12T11:34:04;1.90;99.90
51853;DHT22;37894;53.172;6.598;2023-03-12T11:36:44;2.30;99.90
51853;DHT22;37894;53.172;6.598;2023-03-12T11:45:31;2.40;99.90
51853;DHT22;37894;53.172;6.598;2023-03-12T11:53:32;3.00;99.90
51853;DHT22;37894;53.172;6.598;2023-03-12T11:59:16;3.20;99.90
51853;DHT22;37894;53.172;6.598;2023-03-12T12:05:25;3.00;99.90
51853;DHT22;37894;53.172;6.598;2023-03-12T12:08:18;3.10;99.90
51853;DHT22;37894;53.172;6.598;2023-03-12T12:19:06;3.60;99.90
51853;DHT22;37894;53.172;6.598;2023-03-12T12:27:18;3.90;99.90
51853;DHT22;37894;53.172;6.598;2023-03-12T12:35:37;4.30;99.90
51853;DHT22;37894;53.172;6.598;2023-03-12T12:40:50;3.70;99.90
51853;DHT22;37894;53.172;6.598;2023-03-12T12:46:13;4.80;99.90
51853;DHT22;37894;53.172;6.598;2023-03-12T12:48:51;4.10;99.90
51853;DHT22;37894;53.172;6.598;2023-03-12T12:51:22;4.80;99.90
51853;DHT22;37894;53.172;6.598;2023-03-12T12:54:27;4.90;99.90
51853;DHT22;37894;53.172;6.598;2023-03-12T13:01:59;5.10;99.90
51853;DHT22;37894;53.172;6.598;2023-03-12T13:04:31;5.40;99.90
51853;DHT22;37894;53.172;6.598;2023-03-12T13:07:02;5.40;99.90
51853;DHT22;37894;53.172;6.598;2023-03-12T13:09:40;5.60;99.90
51853;DHT22;37894;53.172;6.598;2023-03-12T13:12:40;5.80;99.90
51853;DHT22;37894;53.172;6.598;2023-03-12T13:26:41;6.30;99.90
51853;DHT22;37894;53.172;6.598;2023-03-12T13:31:54;6.70;99.90
51853;DHT22;37894;53.172;6.598;2023-03-12T13:36:57;6.70;99.90
51853;DHT22;37894;53.172;6.598;2023-03-12T13:39:34;6.90;99.90
51853;DHT22;37894;53.172;6.598;2023-03-12T13:42:02;6.80;99.90
51853;DHT22;37894;53.172;6.598;2023-03-12T13:47:25;7.10;99.90
51853;DHT22;37894;53.172;6.598;2023-03-12T13:50:03;7.00;99.90
51853;DHT22;37894;53.172;6.598;2023-03-12T13:52:40;7.40;99.90
51853;DHT22;37894;53.172;6.598;2023-03-12T13:57:43;7.50;99.90
51853;DHT22;37894;53.172;6.598;2023-03-12T14:00:27;7.60;99.90
51853;DHT22;37894;53.172;6.598;2023-03-12T14:03:00;7.80;99.90
51853;DHT22;37894;53.172;6.598;2023-03-12T14:05:29;7.40;99.90
51853;DHT22;37894;53.172;6.598;2023-03-12T14:16:46;7.80;99.90
51853;DHT22;37894;53.172;6.598;2023-03-12T14:19:18;7.70;99.90
51853;DHT22;37894;53.172;6.598;2023-03-12T14:21:48;7.80;99.90
51853;DHT22;37894;53.172;6.598;2023-03-12T14:27:26;7.80;99.90
51853;DHT22;37894;53.172;6.598;2023-03-12T14:32:31;7.40;99.90
51853;DHT22;37894;53.172;6.598;2023-03-12T14:35:22;8.00;99.90
51853;DHT22;37894;53.172;6.598;2023-03-12T14:38:16;8.00;99.90
51853;DHT22;37894;53.172;6.598;2023-03-12T14:41:40;8.00;99.90
51853;DHT22;37894;53.172;6.598;2023-03-12T14:44:21;8.10;99.90
51853;DHT22;37894;53.172;6.598;2023-03-12T14:46:58;8.10;99.90
51853;DHT22;37894;53.172;6.598;2023-03-12T14:51:50;7.90;99.90
51853;DHT22;37894;53.172;6.598;2023-03-12T14:54:23;7.30;99.90
51853;DHT22;37894;53.172;6.598;2023-03-12T14:56:49;8.20;99.90
51853;DHT22;37894;53.172;6.598;2023-03-12T14:59:32;8.30;99.90
51853;DHT22;37894;53.172;6.598;2023-03-12T15:02:12;7.80;99.90
51853;DHT22;37894;53.172;6.598;2023-03-12T15:04:39;8.10;99.90
51853;DHT22;37894;53.172;6.598;2023-03-12T15:07:09;8.00;99.90
51853;DHT22;37894;53.172;6.598;2023-03-12T15:09:41;9.00;99.90
51853;DHT22;37894;53.172;6.598;2023-03-12T15:12:37;8.30;99.90
51853;DHT22;37894;53.172;6.598;2023-03-12T15:15:08;8.10;99.90
51853;DHT22;37894;53.172;6.598;2023-03-12T15:17:35;8.10;99.90
51853;DHT22;37894;53.172;6.598;2023-03-12T15:20:05;8.10;99.90
51853;DHT22;37894;53.172;6.598;2023-03-12T15:22:33;8.10;99.90
51853;DHT22;37894;53.172;6.598;2023-03-12T15:25:26;8.50;99.90
51853;DHT22;37894;53.172;6.598;2023-03-12T15:30:40;7.90;99.90
51853;DHT22;37894;53.172;6.598;2023-03-12T15:35:57;8.20;99.90
51853;DHT22;37894;53.172;6.598;2023-03-12T15:38:23;7.60;99.90
51853;DHT22;37894;53.172;6.598;2023-03-12T15:40:51;8.20;99.90
51853;DHT22;37894;53.172;6.598;2023-03-12T15:43:19;8.20;99.90
51853;DHT22;37894;53.172;6.598;2023-03-12T15:45:46;8.50;99.90
51853;DHT22;37894;53.172;6.598;2023-03-12T15:48:22;8.20;99.90
51853;DHT22;37894;53.172;6.598;2023-03-12T15:50:50;8.00;99.90
51853;DHT22;37894;53.172;6.598;2023-03-12T15:56:20;8.30;99.90
51853;DHT22;37894;53.172;6.598;2023-03-12T16:01:17;7.40;99.90
51853;DHT22;37894;53.172;6.598;2023-03-12T16:03:48;8.00;99.90
51853;DHT22;37894;53.172;6.598;2023-03-12T16:06:19;8.30;99.90
51853;DHT22;37894;53.172;6.598;2023-03-12T16:11:16;8.40;99.90
51853;DHT22;37894;53.172;6.598;2023-03-12T16:13:42;8.50;99.90
51853;DHT22;37894;53.172;6.598;2023-03-12T16:16:11;8.40;99.90
51853;DHT22;37894;53.172;6.598;2023-03-12T16:18:37;8.30;99.90
51853;DHT22;37894;53.172;6.598;2023-03-12T16:23:29;9.30;99.90
51853;DHT22;37894;53.172;6.598;2023-03-12T16:28:22;8.20;99.90
51853;DHT22;37894;53.172;6.598;2023-03-12T16:30:50;8.40;99.90
51853;DHT22;37894;53.172;6.598;2023-03-12T16:33:18;8.40;99.90
51853;DHT22;37894;53.172;6.598;2023-03-12T16:38:11;8.10;99.90
51853;DHT22;37894;53.172;6.598;2023-03-12T16:40:39;8.20;99.90
51853;DHT22;37894;53.172;6.598;2023-03-12T16:43:12;8.30;99.90
51853;DHT22;37894;53.172;6.598;2023-03-12T16:45:42;8.30;99.90
51853;DHT22;37894;53.172;6.598;2023-03-12T16:48:13;8.20;99.90
51853;DHT22;37894;53.172;6.598;2023-03-12T16:50:39;8.40;99.90
51853;DHT22;37894;53.172;6.598;2023-03-12T16:55:44;7.90;99.90
51853;DHT22;37894;53.172;6.598;2023-03-12T16:58:12;7.90;99.90
51853;DHT22;37894;53.172;6.598;2023-03-12T17:00:39;8.20;99.90
51853;DHT22;37894;53.172;6.598;2023-03-12T17:03:05;8.40;99.90
51853;DHT22;37894;53.172;6.598;2023-03-12T17:07:57;8.90;99.90
51853;DHT22;37894;53.172;6.598;2023-03-12T17:10:24;8.20;99.90
51853;DHT22;37894;53.172;6.598;2023-03-12T17:12:51;8.10;99.90
51853;DHT22;37894;53.172;6.598;2023-03-12T17:15:25;8.30;99.90
51853;DHT22;37894;53.172;6.598;2023-03-12T17:17:52;7.80;99.90
51853;DHT22;37894;53.172;6.598;2023-03-12T17:20:20;8.10;99.90
51853;DHT22;37894;53.172;6.598;2023-03-12T17:25:24;8.00;99.90
51853;DHT22;37894;53.172;6.598;2023-03-12T17:27:51;7.90;99.90
51853;DHT22;37894;53.172;6.598;2023-03-12T17:30:17;7.90;99.90
51853;DHT22;37894;53.172;6.598;2023-03-12T17:32:43;7.70;99.90
51853;DHT22;37894;53.172;6.598;2023-03-12T17:35:09;7.00;99.90
51853;DHT22;37894;53.172;6.598;2023-03-12T17:37:35;7.70;99.90
51853;DHT22;37894;53.172;6.598;2023-03-12T17:42:33;7.90;99.90
51853;DHT22;37894;53.172;6.598;2023-03-12T17:44:59;7.30;99.90
51853;DHT22;37894;53.172;6.598;2023-03-12T17:47:26;7.50;99.90
51853;DHT22;37894;53.172;6.598;2023-03-12T17:49:52;7.50;99.90
51853;DHT22;37894;53.172;6.598;2023-03-12T17:52:18;7.30;99.90
51853;DHT22;37894;53.172;6.598;2023-03-12T17:54:44;7.80;99.90
51853;DHT22;37894;53.172;6.598;2023-03-12T17:57:09;7.50;99.90
51853;DHT22;37894;53.172;6.598;2023-03-12T17:59:35;7.30;99.90
51853;DHT22;37894;53.172;6.598;2023-03-12T18:02:01;7.90;99.90
51853;DHT22;37894;53.172;6.598;2023-03-12T18:04:26;7.60;99.90
51853;DHT22;37894;53.172;6.598;2023-03-12T18:09:18;7.30;99.90
51853;DHT22;37894;53.172;6.598;2023-03-12T18:11:44;7.30;99.90
51853;DHT22;37894;53.172;6.598;2023-03-12T18:14:10;7.40;99.90
51853;DHT22;37894;53.172;6.598;2023-03-12T18:16:36;7.80;99.90
51853;DHT22;37894;53.172;6.598;2023-03-12T18:21:27;8.20;99.90
51853;DHT22;37894;53.172;6.598;2023-03-12T18:28:45;7.30;99.90
51853;DHT22;37894;53.172;6.598;2023-03-12T18:36:03;7.80;99.90
51853;DHT22;37894;53.172;6.598;2023-03-12T18:38:31;7.60;99.90
51853;DHT22;37894;53.172;6.598;2023-03-12T18:41:10;7.90;99.90
51853;DHT22;37894;53.172;6.598;2023-03-12T18:43:37;8.00;99.90
51853;DHT22;37894;53.172;6.598;2023-03-12T18:46:04;7.50;99.90
51853;DHT22;37894;53.172;6.598;2023-03-12T18:48:30;7.60;99.90
51853;DHT22;37894;53.172;6.598;2023-03-12T18:50:56;7.40;99.90
51853;DHT22;37894;53.172;6.598;2023-03-12T18:55:55;7.90;99.90
51853;DHT22;37894;53.172;6.598;2023-03-12T18:58:24;7.60;99.90
51853;DHT22;37894;53.172;6.598;2023-03-12T19:00:54;7.00;99.90
51853;DHT22;37894;53.172;6.598;2023-03-12T19:03:20;7.60;99.90
51853;DHT22;37894;53.172;6.598;2023-03-12T19:05:46;7.90;99.90
51853;DHT22;37894;53.172;6.598;2023-03-12T19:08:12;7.30;99.90
51853;DHT22;37894;53.172;6.598;2023-03-12T19:10:42;7.80;99.90
51853;DHT22;37894;53.172;6.598;2023-03-12T19:13:09;7.60;99.90
51853;DHT22;37894;53.172;6.598;2023-03-12T19:15:36;7.80;99.90
51853;DHT22;37894;53.172;6.598;2023-03-12T19:18:03;8.00;99.90
51853;DHT22;37894;53.172;6.598;2023-03-12T19:20:29;8.10;99.90
51853;DHT22;37894;53.172;6.598;2023-03-12T19:22:55;7.80;99.90
51853;DHT22;37894;53.172;6.598;2023-03-12T19:30:13;7.80;99.90
51853;DHT22;37894;53.172;6.598;2023-03-12T19:32:39;7.60;99.90
51853;DHT22;37894;53.172;6.598;2023-03-12T19:35:06;7.70;99.90
51853;DHT22;37894;53.172;6.598;2023-03-12T19:42:25;7.60;99.90
51853;DHT22;37894;53.172;6.598;2023-03-12T19:44:51;7.40;99.90
51853;DHT22;37894;53.172;6.598;2023-03-12T19:47:17;7.70;99.90
51853;DHT22;37894;53.172;6.598;2023-03-12T19:49:43;7.00;99.90
51853;DHT22;37894;53.172;6.598;2023-03-12T19:52:09;7.70;99.90
51853;DHT22;37894;53.172;6.598;2023-03-12T19:59:27;8.10;99.90
51853;DHT22;37894;53.172;6.598;2023-03-12T20:09:11;7.50;99.90
51853;DHT22;37894;53.172;6.598;2023-03-12T20:14:03;7.60;99.90
51853;DHT22;37894;53.172;6.598;2023-03-12T20:18:55;7.90;99.90
51853;DHT22;37894;53.172;6.598;2023-03-12T20:23:47;7.60;99.90
51853;DHT22;37894;53.172;6.598;2023-03-12T20:28:40;7.50;99.90
51853;DHT22;37894;53.172;6.598;2023-03-12T20:31:11;7.90;99.90
51853;DHT22;37894;53.172;6.598;2023-03-12T20:33:37;7.50;99.90
51853;DHT22;37894;53.172;6.598;2023-03-12T20:36:05;7.80;99.90
51853;DHT22;37894;53.172;6.598;2023-03-12T20:38:31;7.90;99.90
51853;DHT22;37894;53.172;6.598;2023-03-12T20:40:56;7.50;99.90
51853;DHT22;37894;53.172;6.598;2023-03-12T20:45:48;7.60;99.90
51853;DHT22;37894;53.172;6.598;2023-03-12T20:48:14;7.70;99.90
51853;DHT22;37894;53.172;6.598;2023-03-12T20:50:40;8.00;99.90
51853;DHT22;37894;53.172;6.598;2023-03-12T20:53:05;8.70;99.90
51853;DHT22;37894;53.172;6.598;2023-03-12T20:55:31;7.80;99.90
51853;DHT22;37894;53.172;6.598;2023-03-12T20:57:57;8.30;99.90
51853;DHT22;37894;53.172;6.598;2023-03-12T21:00:23;8.30;99.90
51853;DHT22;37894;53.172;6.598;2023-03-12T21:02:49;7.90;99.90
51853;DHT22;37894;53.172;6.598;2023-03-12T21:05:15;7.50;99.90
51853;DHT22;37894;53.172;6.598;2023-03-12T21:07:41;8.10;99.90
51853;DHT22;37894;53.172;6.598;2023-03-12T21:10:07;8.20;99.90